createdAt,value
2018-12-14T00:00:56.077Z,102047.70
2018-12-14T00:01:56.510Z,102047.80
2018-12-14T00:02:57.084Z,102047.80
2018-12-14T00:03:57.704Z,102047.63
2018-12-14T00:04:05.994Z,102043.95
2018-12-14T00:05:06.528Z,102044.23
2018-12-14T00:06:07.552Z,102044.13
2018-12-14T00:07:07.965Z,102044.20
2018-12-14T00:08:08.568Z,102043.72
2018-12-14T00:09:08.970Z,102043.72
2018-12-14T00:10:09.412Z,102043.64
2018-12-14T00:11:09.814Z,102043.54
2018-12-14T00:12:10.212Z,102043.37
2018-12-14T00:13:10.617Z,102044.13
2018-12-14T00:14:11.561Z,102043.54
2018-12-14T00:15:11.930Z,102044.30
2018-12-14T00:16:11.446Z,102044.54
2018-12-14T00:17:12.859Z,102044.31
2018-12-14T00:18:12.962Z,102044.48
2018-12-14T00:19:13.779Z,102044.98
2018-12-14T00:20:14.458Z,102045.14
2018-12-14T00:21:15.194Z,102045.81
2018-12-14T00:22:15.623Z,102046.31
2018-12-14T00:23:16.000Z,102046.81
2018-12-14T00:24:16.481Z,102047.05
2018-12-14T00:25:17.065Z,102047.88
2018-12-14T00:26:17.927Z,102048.11
2018-12-14T00:27:16.801Z,102048.95
2018-12-14T00:28:16.890Z,102049.02
2018-12-14T00:29:18.408Z,102049.12
2018-12-14T00:30:18.012Z,102049.45
2018-12-14T00:31:19.416Z,102049.53
2018-12-14T00:32:19.883Z,102050.13
2018-12-14T00:33:20.271Z,102049.86
2018-12-14T00:34:20.687Z,102049.94
2018-12-14T00:35:21.199Z,102049.84
2018-12-14T00:36:21.766Z,102050.50
2018-12-14T00:37:22.329Z,102050.77
2018-12-14T00:38:22.763Z,102050.84
2018-12-14T00:39:23.447Z,102050.59
2018-12-14T00:40:24.241Z,102050.27
2018-12-14T00:41:24.751Z,102050.16
2018-12-14T00:42:25.390Z,102049.91
2018-12-14T00:43:25.896Z,102049.58
2018-12-14T00:44:26.488Z,102049.66
2018-12-14T00:45:27.335Z,102049.00
2018-12-14T00:46:27.742Z,102048.73
2018-12-14T00:47:28.269Z,102048.81
2018-12-14T00:48:29.016Z,102049.05
2018-12-14T00:49:29.473Z,102049.22
2018-12-14T00:50:29.891Z,102049.23
2018-12-14T00:51:30.658Z,102049.55
2018-12-14T00:51:38.999Z,102058.84
2018-12-14T00:52:40.536Z,102058.25
2018-12-14T00:53:41.007Z,102058.25
2018-12-14T00:54:41.555Z,102058.25
2018-12-14T00:55:42.012Z,102058.08
2018-12-14T00:56:42.373Z,102057.69
2018-12-14T00:57:42.806Z,102057.52
2018-12-14T00:58:42.819Z,102056.86
2018-12-14T00:59:43.495Z,102056.19
2018-12-14T01:00:43.908Z,102055.36
2018-12-14T01:01:44.506Z,102054.92
2018-12-14T01:02:44.910Z,102054.19
2018-12-14T01:03:45.670Z,102054.04
2018-12-14T01:04:46.120Z,102053.77
2018-12-14T01:05:46.547Z,102053.37
2018-12-14T01:06:47.052Z,102053.52
2018-12-14T01:07:47.942Z,102053.45
2018-12-14T01:08:48.440Z,102053.81
2018-12-14T01:09:49.366Z,102054.13
2018-12-14T01:10:49.812Z,102054.23
2018-12-14T01:11:50.328Z,102053.99
2018-12-14T01:12:50.696Z,102054.48
2018-12-14T01:13:51.107Z,102054.91
2018-12-14T01:14:51.571Z,102054.91
2018-12-14T01:15:51.963Z,102055.67
2018-12-14T01:16:52.343Z,102056.67
2018-12-14T01:17:52.780Z,102056.73
2018-12-14T01:18:53.165Z,102057.57
2018-12-14T01:19:53.527Z,102058.07
2018-12-14T01:20:54.272Z,102058.56
2018-12-14T01:21:54.661Z,102059.06
2018-12-14T01:22:55.491Z,102059.06
2018-12-14T01:23:54.917Z,102060.16
2018-12-14T01:24:56.898Z,102060.66
2018-12-14T01:25:57.318Z,102061.66
2018-12-14T01:26:57.491Z,102062.16
2018-12-14T01:27:57.890Z,102062.83
2018-12-14T01:28:58.303Z,102063.06
2018-12-14T01:29:58.992Z,102063.39
2018-12-14T01:30:59.428Z,102063.89
2018-12-14T01:31:59.905Z,102063.97
2018-12-14T01:33:00.523Z,102064.53
2018-12-14T01:34:01.343Z,102065.14
2018-12-14T01:35:01.899Z,102065.38
2018-12-14T01:36:02.783Z,102065.78
2018-12-14T01:37:03.318Z,102066.52
2018-12-14T01:37:11.372Z,102077.36
2018-12-14T01:38:12.820Z,102076.43
2018-12-14T01:39:13.385Z,102075.93
2018-12-14T01:40:13.934Z,102075.27
2018-12-14T01:41:14.404Z,102074.77
2018-12-14T01:42:15.055Z,102074.17
2018-12-14T01:43:15.511Z,102074.01
2018-12-14T01:44:15.882Z,102073.84
2018-12-14T01:45:16.218Z,102073.67
2018-12-14T01:46:16.654Z,102073.44
2018-12-14T01:47:17.119Z,102073.44
2018-12-14T01:48:17.673Z,102073.10
2018-12-14T01:49:18.195Z,102072.44
2018-12-14T01:50:18.568Z,102072.44
2018-12-14T01:51:19.160Z,102072.27
2018-12-14T01:52:19.930Z,102072.20
2018-12-14T01:53:20.399Z,102071.53
2018-12-14T01:54:20.783Z,102071.63
2018-12-14T01:55:21.377Z,102071.36
2018-12-14T01:56:21.800Z,102071.13
2018-12-14T01:57:22.231Z,102071.22
2018-12-14T01:58:22.572Z,102070.98
2018-12-14T01:59:23.007Z,102070.48
2018-12-14T02:00:23.394Z,102069.81
2018-12-14T02:01:23.804Z,102070.04
2018-12-14T02:02:24.606Z,102070.14
2018-12-14T02:03:23.690Z,102069.56
2018-12-14T02:04:25.238Z,102069.46
2018-12-14T02:05:26.030Z,102068.73
2018-12-14T02:06:26.854Z,102068.16
2018-12-14T02:07:27.208Z,102068.31
2018-12-14T02:08:27.631Z,102068.08
2018-12-14T02:09:28.271Z,102068.50
2018-12-14T02:10:28.687Z,102068.50
2018-12-14T02:11:29.321Z,102068.44
2018-12-14T02:12:29.833Z,102068.83
2018-12-14T02:13:30.358Z,102068.99
2018-12-14T02:14:30.701Z,102069.16
2018-12-14T02:15:30.740Z,102068.93
2018-12-14T02:16:31.564Z,102069.77
2018-12-14T02:17:32.129Z,102069.66
2018-12-14T02:18:33.035Z,102069.91
2018-12-14T02:19:33.801Z,102070.41
2018-12-14T02:20:34.687Z,102070.06
2018-12-14T02:21:35.512Z,102069.64
2018-12-14T02:22:36.236Z,102069.36
2018-12-14T02:22:44.476Z,102073.59
2018-12-14T02:23:46.099Z,102073.36
2018-12-14T02:24:46.591Z,102072.60
2018-12-14T02:25:47.012Z,102072.70
2018-12-14T02:26:47.482Z,102072.03
2018-12-14T02:27:47.885Z,102071.77
2018-12-14T02:28:48.219Z,102071.44
2018-12-14T02:29:48.765Z,102071.44
2018-12-14T02:30:49.082Z,102071.34
2018-12-14T02:31:49.657Z,102071.84
2018-12-14T02:32:50.379Z,102071.75
2018-12-14T02:33:50.735Z,102071.75
2018-12-14T02:34:51.305Z,102072.25
2018-12-14T02:35:52.034Z,102072.08
2018-12-14T02:36:52.492Z,102072.84
2018-12-14T02:37:53.158Z,102072.67
2018-12-14T02:38:53.538Z,102072.84
2018-12-14T02:39:53.956Z,102073.01
2018-12-14T02:40:54.389Z,102073.41
2018-12-14T02:41:54.792Z,102073.58
2018-12-14T02:42:55.039Z,102073.84
2018-12-14T02:43:55.498Z,102073.59
2018-12-14T02:44:55.937Z,102073.99
2018-12-14T02:45:56.081Z,102074.16
2018-12-14T02:46:56.402Z,102074.33
2018-12-14T02:47:56.795Z,102074.59
2018-12-14T02:48:57.131Z,102074.42
2018-12-14T02:49:57.493Z,102073.83
2018-12-14T02:50:57.836Z,102073.83
2018-12-14T02:51:58.162Z,102074.16
2018-12-14T02:52:58.531Z,102074.00
2018-12-14T02:53:59.007Z,102073.50
2018-12-14T02:54:59.430Z,102073.59
2018-12-14T02:55:59.924Z,102073.00
2018-12-14T02:57:00.423Z,102072.98
2018-12-14T02:58:00.810Z,102072.23
2018-12-14T02:59:01.459Z,102072.62
2018-12-14T03:00:01.926Z,102071.97
2018-12-14T03:01:02.446Z,102071.97
2018-12-14T03:02:03.223Z,102071.55
2018-12-14T03:03:04.264Z,102071.12
2018-12-14T03:03:20.007Z,102067.04
2018-12-14T03:04:20.045Z,102066.31
2018-12-14T03:05:21.918Z,102065.98
2018-12-14T03:06:22.805Z,102066.20
2018-12-14T03:07:23.721Z,102066.30
2018-12-14T03:08:24.260Z,102065.63
2018-12-14T03:09:24.524Z,102065.56
2018-12-14T03:10:25.024Z,102065.23
2018-12-14T03:11:25.880Z,102065.13
2018-12-14T03:12:26.924Z,102064.46
2018-12-14T03:13:26.019Z,102063.96
2018-12-14T03:14:27.008Z,102063.30
2018-12-14T03:15:27.568Z,102062.97
2018-12-14T03:16:27.950Z,102062.07
2018-12-14T03:17:28.770Z,102062.07
2018-12-14T03:18:29.178Z,102062.14
2018-12-14T03:19:29.510Z,102061.21
2018-12-14T03:20:29.871Z,102061.47
2018-12-14T03:21:30.378Z,102060.55
2018-12-14T03:22:31.099Z,102060.05
2018-12-14T03:23:31.538Z,102059.72
2018-12-14T03:24:31.921Z,102058.49
2018-12-14T03:25:32.429Z,102057.89
2018-12-14T03:26:32.343Z,102057.39
2018-12-14T03:27:34.008Z,102056.81
2018-12-14T03:28:34.948Z,102056.41
2018-12-14T03:29:35.872Z,102055.91
2018-12-14T03:30:36.241Z,102056.07
2018-12-14T03:31:36.693Z,102055.67
2018-12-14T03:32:37.343Z,102055.09
2018-12-14T03:33:36.679Z,102055.33
2018-12-14T03:34:38.063Z,102055.25
2018-12-14T03:35:38.461Z,102055.61
2018-12-14T03:36:38.841Z,102055.84
2018-12-14T03:37:39.650Z,102055.94
2018-12-14T03:38:40.071Z,102056.63
2018-12-14T03:39:40.757Z,102056.69
2018-12-14T03:40:41.121Z,102056.62
2018-12-14T03:41:41.474Z,102056.45
2018-12-14T03:42:41.914Z,102056.28
2018-12-14T03:43:42.348Z,102055.95
2018-12-14T03:44:42.719Z,102055.45
2018-12-14T03:45:43.240Z,102055.45
2018-12-14T03:46:43.863Z,102054.69
2018-12-14T03:47:44.323Z,102054.36
2018-12-14T03:48:44.719Z,102053.36
2018-12-14T03:49:45.673Z,102052.62
2018-12-14T03:49:53.729Z,102040.50
2018-12-14T03:50:55.366Z,102040.27
2018-12-14T03:51:55.649Z,102040.34
2018-12-14T03:52:56.154Z,102040.25
2018-12-14T03:53:56.215Z,102040.48
2018-12-14T03:54:57.165Z,102040.59
2018-12-14T03:55:57.531Z,102040.66
2018-12-14T03:56:57.933Z,102040.80
2018-12-14T03:57:58.260Z,102040.81
2018-12-14T03:58:58.815Z,102041.21
2018-12-14T03:59:59.242Z,102041.22
2018-12-14T04:00:59.790Z,102041.36
2018-12-14T04:02:00.222Z,102041.38
2018-12-14T04:03:00.685Z,102041.61
2018-12-14T04:04:01.046Z,102041.62
2018-12-14T04:05:01.467Z,102041.59
2018-12-14T04:06:02.033Z,102041.67
2018-12-14T04:07:02.393Z,102041.94
2018-12-14T04:08:02.794Z,102041.67
2018-12-14T04:09:03.254Z,102041.19
2018-12-14T04:10:03.764Z,102041.69
2018-12-14T04:11:04.094Z,102042.09
2018-12-14T04:12:04.244Z,102042.16
2018-12-14T04:13:04.853Z,102042.66
2018-12-14T04:14:05.477Z,102042.90
2018-12-14T04:15:06.101Z,102043.23
2018-12-14T04:16:06.692Z,102043.34
2018-12-14T04:17:06.697Z,102043.67
2018-12-14T04:18:07.474Z,102043.83
2018-12-14T04:19:08.388Z,102044.17
2018-12-14T04:20:08.763Z,102044.17
2018-12-14T04:21:09.559Z,102044.06
2018-12-14T04:22:09.567Z,102043.90
2018-12-14T04:23:10.256Z,102043.49
2018-12-14T04:24:11.013Z,102043.33
2018-12-14T04:25:11.437Z,102043.34
2018-12-14T04:26:11.770Z,102043.17
2018-12-14T04:27:12.334Z,102043.09
2018-12-14T04:28:12.776Z,102042.86
2018-12-14T04:29:13.313Z,102042.62
2018-12-14T04:30:14.064Z,102042.52
2018-12-14T04:31:14.461Z,102042.34
2018-12-14T04:32:14.940Z,102041.84
2018-12-14T04:33:14.805Z,102042.28
2018-12-14T04:34:16.305Z,102042.20
2018-12-14T04:35:16.906Z,102042.30
2018-12-14T04:36:16.146Z,102042.12
2018-12-14T04:36:24.486Z,102046.69
2018-12-14T04:37:26.071Z,102046.25
2018-12-14T04:38:26.491Z,102046.52
2018-12-14T04:39:26.992Z,102046.77
2018-12-14T04:40:27.440Z,102047.33
2018-12-14T04:41:28.279Z,102047.51
2018-12-14T04:42:28.586Z,102046.75
2018-12-14T04:43:28.697Z,102047.09
2018-12-14T04:44:29.184Z,102047.49
2018-12-14T04:45:29.517Z,102046.97
2018-12-14T04:46:29.190Z,102046.91
2018-12-14T04:47:30.852Z,102046.81
2018-12-14T04:48:31.214Z,102046.81
2018-12-14T04:49:31.674Z,102046.55
2018-12-14T04:50:32.048Z,102046.88
2018-12-14T04:51:32.630Z,102047.39
2018-12-14T04:52:33.036Z,102047.97
2018-12-14T04:53:33.038Z,102047.87
2018-12-14T04:54:33.585Z,102048.38
2018-12-14T04:55:33.853Z,102048.85
2018-12-14T04:56:34.341Z,102049.63
2018-12-14T04:57:34.777Z,102049.77
2018-12-14T04:58:35.198Z,102050.34
2018-12-14T04:59:35.799Z,102050.34
2018-12-14T05:00:36.190Z,102051.00
2018-12-14T05:01:36.670Z,102051.44
2018-12-14T05:02:37.163Z,102052.27
2018-12-14T05:03:37.785Z,102052.34
2018-12-14T05:04:38.427Z,102052.84
2018-12-14T05:05:38.782Z,102052.65
2018-12-14T05:06:39.176Z,102053.59
2018-12-14T05:07:39.545Z,102054.56
2018-12-14T05:08:40.234Z,102054.90
2018-12-14T05:09:40.683Z,102055.30
2018-12-14T05:10:41.100Z,102055.70
2018-12-14T05:11:41.570Z,102056.14
2018-12-14T05:12:41.947Z,102056.31
2018-12-14T05:13:42.416Z,102056.81
2018-12-14T05:14:42.987Z,102057.48
2018-12-14T05:15:43.404Z,102058.05
2018-12-14T05:16:43.828Z,102058.71
2018-12-14T05:17:44.326Z,102059.28
2018-12-14T05:18:44.798Z,102060.19
2018-12-14T05:19:45.491Z,102061.45
2018-12-14T05:20:45.849Z,102062.09
2018-12-14T05:21:46.200Z,102063.44
2018-12-14T05:21:54.615Z,102083.48
2018-12-14T05:22:56.137Z,102083.09
2018-12-14T05:23:56.691Z,102083.33
2018-12-14T05:24:56.995Z,102083.13
2018-12-14T05:25:57.334Z,102082.97
2018-12-14T05:26:57.695Z,102082.73
2018-12-14T05:27:58.060Z,102082.58
2018-12-14T05:28:58.574Z,102082.41
2018-12-14T05:29:58.931Z,102081.91
2018-12-14T05:30:59.379Z,102080.91
2018-12-14T05:31:59.843Z,102080.41
2018-12-14T05:33:00.297Z,102080.25
2018-12-14T05:34:01.053Z,102079.75
2018-12-14T05:35:01.575Z,102080.14
2018-12-14T05:36:01.213Z,102079.81
2018-12-14T05:37:02.700Z,102080.00
2018-12-14T05:38:02.406Z,102079.93
2018-12-14T05:39:03.869Z,102080.09
2018-12-14T05:40:04.520Z,102080.27
2018-12-14T05:41:05.118Z,102080.00
2018-12-14T05:42:05.685Z,102080.07
2018-12-14T05:43:06.109Z,102080.64
2018-12-14T05:44:06.524Z,102080.58
2018-12-14T05:45:06.874Z,102080.81
2018-12-14T05:46:07.637Z,102081.65
2018-12-14T05:47:08.461Z,102081.74
2018-12-14T05:48:09.100Z,102082.24
2018-12-14T05:49:09.882Z,102082.58
2018-12-14T05:50:10.737Z,102082.73
2018-12-14T05:51:10.230Z,102082.97
2018-12-14T05:52:11.642Z,102083.13
2018-12-14T05:53:12.118Z,102083.97
2018-12-14T05:54:12.901Z,102083.73
2018-12-14T05:55:13.242Z,102083.81
2018-12-14T05:56:13.625Z,102084.48
2018-12-14T05:57:14.026Z,102085.05
2018-12-14T05:58:14.488Z,102085.05
2018-12-14T05:59:15.424Z,102084.95
2018-12-14T06:00:15.349Z,102084.89
2018-12-14T06:01:17.107Z,102084.80
2018-12-14T06:02:17.895Z,102084.95
2018-12-14T06:03:18.355Z,102085.45
2018-12-14T06:04:18.017Z,102085.95
2018-12-14T06:05:19.357Z,102085.53
2018-12-14T06:06:19.686Z,102085.27
2018-12-14T06:07:20.115Z,102085.94
2018-12-14T06:08:19.829Z,102086.37
2018-12-14T06:09:20.721Z,102086.77
2018-12-14T06:10:22.379Z,102086.77
2018-12-14T06:11:22.724Z,102087.53
2018-12-14T06:11:30.978Z,102099.29
2018-12-14T06:12:32.308Z,102098.89
2018-12-14T06:13:31.797Z,102098.89
2018-12-14T06:14:33.321Z,102098.96
2018-12-14T06:15:34.052Z,102098.63
2018-12-14T06:16:34.815Z,102098.80
2018-12-14T06:17:35.235Z,102099.13
2018-12-14T06:18:35.696Z,102099.80
2018-12-14T06:19:36.269Z,102100.13
2018-12-14T06:20:36.919Z,102100.45
2018-12-14T06:21:37.290Z,102100.45
2018-12-14T06:22:37.681Z,102100.72
2018-12-14T06:23:38.180Z,102100.72
2018-12-14T06:24:38.508Z,102101.61
2018-12-14T06:25:38.849Z,102101.61
2018-12-14T06:26:39.195Z,102102.11
2018-12-14T06:27:39.740Z,102102.45
2018-12-14T06:28:40.516Z,102102.95
2018-12-14T06:29:41.049Z,102103.70
2018-12-14T06:30:41.473Z,102104.04
2018-12-14T06:31:42.876Z,102104.04
2018-12-14T06:32:42.390Z,102104.13
2018-12-14T06:33:42.891Z,102104.13
2018-12-14T06:34:43.308Z,102104.86
2018-12-14T06:35:43.723Z,102105.13
2018-12-14T06:36:44.083Z,102105.22
2018-12-14T06:37:44.722Z,102105.98
2018-12-14T06:38:45.119Z,102106.05
2018-12-14T06:39:45.546Z,102106.05
2018-12-14T06:40:45.882Z,102106.64
2018-12-14T06:41:46.205Z,102106.80
2018-12-14T06:42:46.561Z,102106.64
2018-12-14T06:43:45.632Z,102106.80
2018-12-14T06:44:47.382Z,102106.97
2018-12-14T06:45:47.975Z,102107.47
2018-12-14T06:46:48.288Z,102107.97
2018-12-14T06:47:48.717Z,102108.56
2018-12-14T06:48:49.715Z,102108.56
2018-12-14T06:49:50.188Z,102109.16
2018-12-14T06:50:50.788Z,102109.16
2018-12-14T06:51:51.359Z,102109.66
2018-12-14T06:52:51.859Z,102110.33
2018-12-14T06:53:52.354Z,102111.16
2018-12-14T06:54:52.829Z,102112.05
2018-12-14T06:55:01.086Z,102124.19
2018-12-14T06:56:02.580Z,102123.59
2018-12-14T06:57:03.031Z,102124.26
2018-12-14T06:58:03.446Z,102123.66
2018-12-14T06:59:03.960Z,102123.67
2018-12-14T07:00:04.436Z,102123.91
2018-12-14T07:01:04.977Z,102123.98
2018-12-14T07:02:05.360Z,102123.92
2018-12-14T07:03:05.855Z,102123.98
2018-12-14T07:04:06.384Z,102124.06
2018-12-14T07:05:06.980Z,102124.56
2018-12-14T07:06:07.168Z,102125.39
2018-12-14T07:07:07.673Z,102125.79
2018-12-14T07:08:08.501Z,102126.13
2018-12-14T07:09:09.025Z,102126.23
2018-12-14T07:10:09.936Z,102126.73
2018-12-14T07:11:10.390Z,102127.45
2018-12-14T07:12:10.831Z,102127.55
2018-12-14T07:13:11.515Z,102128.31
2018-12-14T07:14:12.205Z,102128.48
2018-12-14T07:15:13.085Z,102129.63
2018-12-14T07:16:13.666Z,102130.23
2018-12-14T07:17:14.452Z,102131.23
2018-12-14T07:18:15.374Z,102131.73
2018-12-14T07:19:15.814Z,102133.23
2018-12-14T07:20:16.289Z,102133.80
2018-12-14T07:21:16.753Z,102135.29
2018-12-14T07:22:17.225Z,102136.06
2018-12-14T07:23:17.658Z,102137.39
2018-12-14T07:24:17.716Z,102138.30
2018-12-14T07:25:18.193Z,102139.63
2018-12-14T07:26:19.120Z,102140.95
2018-12-14T07:27:19.624Z,102142.45
2018-12-14T07:28:19.720Z,102143.45
2018-12-14T07:29:20.272Z,102144.02
2018-12-14T07:30:20.338Z,102145.02
2018-12-14T07:31:21.108Z,102146.19
2018-12-14T07:32:21.504Z,102146.75
2018-12-14T07:33:21.932Z,102147.91
2018-12-14T07:34:22.809Z,102148.69
2018-12-14T07:35:23.492Z,102149.68
2018-12-14T07:36:23.986Z,102150.92
2018-12-14T07:37:24.840Z,102152.08
2018-12-14T07:37:33.133Z,102175.26
2018-12-14T07:38:33.866Z,102174.66
2018-12-14T07:39:34.351Z,102174.66
2018-12-14T07:40:35.020Z,102174.40
2018-12-14T07:41:35.375Z,102174.50
2018-12-14T07:42:35.556Z,102174.24
2018-12-14T07:43:35.984Z,102173.98
2018-12-14T07:44:37.490Z,102174.48
2018-12-14T07:45:35.726Z,102174.22
2018-12-14T07:46:37.268Z,102174.48
2018-12-14T07:47:37.973Z,102174.05
2018-12-14T07:48:38.821Z,102174.55
2018-12-14T07:49:39.298Z,102174.72
2018-12-14T07:50:39.714Z,102175.31
2018-12-14T07:51:40.371Z,102175.31
2018-12-14T07:52:42.035Z,102175.64
2018-12-14T07:53:41.841Z,102176.23
2018-12-14T07:54:42.513Z,102177.23
2018-12-14T07:55:42.956Z,102177.83
2018-12-14T07:56:43.485Z,102178.83
2018-12-14T07:57:43.838Z,102179.39
2018-12-14T07:58:44.829Z,102179.80
2018-12-14T07:59:45.228Z,102180.31
2018-12-14T08:00:45.697Z,102181.38
2018-12-14T08:01:46.446Z,102182.28
2018-12-14T08:02:47.053Z,102183.52
2018-12-14T08:03:47.848Z,102184.19
2018-12-14T08:04:48.361Z,102185.09
2018-12-14T08:05:48.875Z,102186.66
2018-12-14T08:06:50.581Z,102188.26
2018-12-14T08:07:50.310Z,102189.00
2018-12-14T08:08:53.708Z,102189.56
2018-12-14T08:09:51.486Z,102190.89
2018-12-14T08:10:52.368Z,102191.50
2018-12-14T08:11:52.772Z,102192.72
2018-12-14T08:12:53.291Z,102193.39
2018-12-14T08:13:54.038Z,102194.39
2018-12-14T08:14:54.818Z,102195.47
2018-12-14T08:15:55.504Z,102196.33
2018-12-14T08:16:56.388Z,102197.09
2018-12-14T08:17:56.824Z,102198.41
2018-12-14T08:18:57.463Z,102199.08
2018-12-14T08:19:57.700Z,102200.01
2018-12-14T08:20:58.219Z,102200.77
2018-12-14T08:21:58.642Z,102201.94
2018-12-14T08:22:59.112Z,102203.00
2018-12-14T08:23:07.358Z,102216.00
2018-12-14T08:24:09.118Z,102215.41
2018-12-14T08:25:09.945Z,102215.24
2018-12-14T08:26:10.674Z,102215.67
2018-12-14T08:27:11.175Z,102215.41
2018-12-14T08:28:11.865Z,102215.91
2018-12-14T08:29:12.389Z,102216.41
2018-12-14T08:30:12.676Z,102217.08
2018-12-14T08:31:12.056Z,102217.34
2018-12-14T08:32:13.718Z,102218.08
2018-12-14T08:33:14.383Z,102218.57
2018-12-14T08:34:14.731Z,102219.07
2018-12-14T08:35:15.519Z,102219.33
2018-12-14T08:36:16.393Z,102219.67
2018-12-14T08:37:16.762Z,102220.16
2018-12-14T08:38:17.442Z,102219.83
2018-12-14T08:39:17.987Z,102220.26
2018-12-14T08:40:18.578Z,102220.43
2018-12-14T08:41:19.516Z,102220.69
2018-12-14T08:42:20.391Z,102221.25
2018-12-14T08:43:20.203Z,102221.41
2018-12-14T08:44:20.546Z,102222.17
2018-12-14T08:45:21.913Z,102222.87
2018-12-14T08:46:22.752Z,102223.20
2018-12-14T08:47:23.601Z,102223.63
2018-12-14T08:48:24.155Z,102224.78
2018-12-14T08:49:24.501Z,102225.14
2018-12-14T08:50:25.104Z,102224.70
2018-12-14T08:51:25.866Z,102224.80
2018-12-14T08:52:26.316Z,102225.06
2018-12-14T08:53:27.249Z,102225.72
2018-12-14T08:54:27.795Z,102226.65
2018-12-14T08:55:28.545Z,102227.17
2018-12-14T08:56:29.250Z,102228.00
2018-12-14T08:57:29.669Z,102228.52
2018-12-14T08:58:30.165Z,102229.25
2018-12-14T08:59:30.694Z,102230.34
2018-12-14T09:00:31.328Z,102230.77
2018-12-14T09:01:31.832Z,102232.27
2018-12-14T09:02:32.229Z,102232.92
2018-12-14T09:03:32.741Z,102233.78
2018-12-14T09:04:33.148Z,102234.52
2018-12-14T09:05:33.738Z,102234.84
2018-12-14T09:06:34.217Z,102235.34
2018-12-14T09:07:35.144Z,102236.84
2018-12-14T09:08:36.058Z,102238.34
2018-12-14T09:09:36.770Z,102239.67
2018-12-14T09:10:37.443Z,102241.11
2018-12-14T09:10:45.689Z,102272.00
2018-12-14T09:11:47.414Z,102271.56
2018-12-14T09:12:47.984Z,102271.50
2018-12-14T09:13:48.401Z,102271.09
2018-12-14T09:14:49.365Z,102270.66
2018-12-14T09:15:49.946Z,102271.09
2018-12-14T09:16:50.468Z,102271.52
2018-12-14T09:17:51.369Z,102271.61
2018-12-14T09:18:51.858Z,102272.17
2018-12-14T09:19:52.431Z,102272.53
2018-12-14T09:20:52.747Z,102273.03
2018-12-14T09:21:52.819Z,102273.12
2018-12-14T09:22:54.265Z,102273.95
2018-12-14T09:23:53.291Z,102273.97
2018-12-14T09:24:53.771Z,102274.23
2018-12-14T09:25:54.318Z,102274.59
2018-12-14T09:26:54.417Z,102275.00
2018-12-14T09:27:54.840Z,102275.50
2018-12-14T09:28:55.223Z,102276.06
2018-12-14T09:29:55.854Z,102276.59
2018-12-14T09:30:56.269Z,102277.25
2018-12-14T09:31:56.642Z,102277.61
2018-12-14T09:32:57.379Z,102277.77
2018-12-14T09:33:58.246Z,102278.52
2018-12-14T09:34:58.746Z,102279.38
2018-12-14T09:35:59.229Z,102279.88
2018-12-14T09:36:58.969Z,102279.90
2018-12-14T09:38:00.553Z,102280.55
2018-12-14T09:39:01.359Z,102281.08
2018-12-14T09:40:01.747Z,102281.73
2018-12-14T09:41:02.288Z,102282.09
2018-12-14T09:42:02.924Z,102282.69
2018-12-14T09:43:03.432Z,102283.02
2018-12-14T09:44:04.102Z,102283.30
2018-12-14T09:45:04.755Z,102283.03
2018-12-14T09:46:05.374Z,102283.45
2018-12-14T09:47:05.818Z,102283.55
2018-12-14T09:48:06.189Z,102283.66
2018-12-14T09:49:06.539Z,102283.38
2018-12-14T09:50:07.265Z,102284.14
2018-12-14T09:51:12.347Z,102283.97
2018-12-14T09:52:07.215Z,102284.80
2018-12-14T09:53:08.873Z,102284.80
2018-12-14T09:54:09.332Z,102285.39
2018-12-14T09:55:09.702Z,102285.89
2018-12-14T09:56:10.412Z,102286.09
2018-12-14T09:57:10.800Z,102286.16
2018-12-14T09:57:19.212Z,102284.75
2018-12-14T09:58:20.528Z,102284.31
2018-12-14T09:59:21.277Z,102284.91
2018-12-14T10:00:21.833Z,102284.31
2018-12-14T10:01:22.428Z,102284.65
2018-12-14T10:02:23.027Z,102285.15
2018-12-14T10:03:23.933Z,102285.58
2018-12-14T10:04:24.656Z,102285.25
2018-12-14T10:05:25.095Z,102285.91
2018-12-14T10:06:25.946Z,102286.06
2018-12-14T10:07:26.475Z,102286.23
2018-12-14T10:08:26.795Z,102286.56
2018-12-14T10:09:27.127Z,102286.66
2018-12-14T10:10:27.491Z,102287.08
2018-12-14T10:11:28.236Z,102287.27
2018-12-14T10:12:28.581Z,102288.02
2018-12-14T10:13:29.077Z,102288.69
2018-12-14T10:14:29.996Z,102289.03
2018-12-14T10:15:30.784Z,102288.77
2018-12-14T10:16:31.495Z,102288.94
2018-12-14T10:17:31.874Z,102289.09
2018-12-14T10:18:32.773Z,102288.94
2018-12-14T10:19:33.655Z,102288.67
2018-12-14T10:20:34.176Z,102288.67
2018-12-14T10:21:34.740Z,102288.68
2018-12-14T10:22:41.394Z,102289.05
2018-12-14T10:23:35.173Z,102288.64
2018-12-14T10:24:36.747Z,102288.31
2018-12-14T10:25:36.259Z,102288.21
2018-12-14T10:26:37.797Z,102287.95
2018-12-14T10:27:38.611Z,102287.22
2018-12-14T10:28:39.056Z,102286.72
2018-12-14T10:29:39.516Z,102286.06
2018-12-14T10:30:39.070Z,102285.45
2018-12-14T10:31:40.819Z,102284.79
2018-12-14T10:32:41.561Z,102284.39
2018-12-14T10:33:41.965Z,102283.31
2018-12-14T10:34:42.634Z,102282.41
2018-12-14T10:35:43.396Z,102281.48
2018-12-14T10:36:44.014Z,102280.91
2018-12-14T10:37:42.952Z,102279.91
2018-12-14T10:38:44.516Z,102279.17
2018-12-14T10:39:44.879Z,102278.57
2018-12-14T10:40:45.630Z,102277.23
2018-12-14T10:41:45.968Z,102276.17
2018-12-14T10:42:46.318Z,102275.27
2018-12-14T10:43:47.005Z,102274.20
2018-12-14T10:44:46.991Z,102273.26
2018-12-14T10:44:55.013Z,102262.52
2018-12-14T10:45:56.037Z,102262.12
2018-12-14T10:46:56.445Z,102262.29
2018-12-14T10:47:56.881Z,102261.96
2018-12-14T10:48:57.678Z,102261.86
2018-12-14T10:49:58.011Z,102261.86
2018-12-14T10:50:58.393Z,102262.02
2018-12-14T10:51:58.823Z,102262.19
2018-12-14T10:52:59.681Z,102262.19
2018-12-14T10:54:00.336Z,102261.19
2018-12-14T10:55:00.744Z,102261.78
2018-12-14T10:56:01.316Z,102261.55
2018-12-14T10:57:00.826Z,102261.20
2018-12-14T10:58:02.340Z,102261.06
2018-12-14T10:59:02.850Z,102260.72
2018-12-14T11:00:03.329Z,102261.41
2018-12-14T11:01:03.704Z,102260.93
2018-12-14T11:02:04.576Z,102260.09
2018-12-14T11:03:06.036Z,102259.68
2018-12-14T11:04:05.481Z,102258.80
2018-12-14T11:05:05.869Z,102258.32
2018-12-14T11:06:06.439Z,102257.64
2018-12-14T11:07:06.588Z,102256.66
2018-12-14T11:08:07.088Z,102256.09
2018-12-14T11:09:07.570Z,102255.67
2018-12-14T11:10:08.090Z,102254.96
2018-12-14T11:11:08.211Z,102254.78
2018-12-14T11:12:08.914Z,102254.06
2018-12-14T11:13:09.632Z,102253.13
2018-12-14T11:14:13.906Z,102253.42
2018-12-14T11:15:09.606Z,102252.91
2018-12-14T11:16:10.858Z,102252.56
2018-12-14T11:17:10.302Z,102252.50
2018-12-14T11:18:11.982Z,102252.56